Time;durP1;ratioP1;P1;durP2;ratioP2;P2;SDS_P1;SDS_P2;PMS_P1;PMS_P2;Temp;Humidity;BMP_temperature;BMP_pressure;BME280_temperature;BME280_humidity;BME280_pressure;Samples;Min_cycle;Max_cycle;Signal;HPM_P1;HPM_P2
2021/12/09 00:00:37;;;;;;;12.23;11.73;;;19.50;59.20;;;;;;5073463;28;20447;-47
2021/12/09 00:03:07;;;;;;;12.30;11.90;;;19.50;59.50;;;;;;5073498;28;20966;-47
2021/12/09 00:05:35;;;;;;;12.20;11.80;;;19.50;59.70;;;;;;5073625;28;20451;-47
2021/12/09 00:08:04;;;;;;;12.23;11.83;;;19.40;59.90;;;;;;5073533;28;20824;-47
2021/12/09 00:10:31;;;;;;;12.90;12.40;;;19.40;60.30;;;;;;5073269;28;20462;-47
2021/12/09 00:12:58;;;;;;;12.40;11.80;;;19.40;60.70;;;;;;5073317;28;20450;-47
2021/12/09 00:15:25;;;;;;;12.50;12.10;;;19.30;60.80;;;;;;5073580;28;20825;-46
2021/12/09 00:17:51;;;;;;;11.93;11.53;;;19.30;61.20;;;;;;5073320;28;20439;-47
2021/12/09 00:20:19;;;;;;;11.57;11.27;;;19.20;61.40;;;;;;5072920;28;20933;-47
2021/12/09 00:22:46;;;;;;;12.80;12.40;;;19.20;61.70;;;;;;5072867;28;20474;-46
2021/12/09 00:25:15;;;;;;;11.90;11.50;;;19.00;61.80;;;;;;5073312;28;20443;-47
2021/12/09 00:27:42;;;;;;;12.13;11.83;;;19.00;62.40;;;;;;5073206;28;20790;-47
2021/12/09 00:30:11;;;;;;;12.13;11.70;;;18.90;63.70;;;;;;5072916;28;20440;-47
2021/12/09 00:32:38;;;;;;;12.00;11.50;;;18.90;62.90;;;;;;5072894;28;20435;-47
2021/12/09 00:35:05;;;;;;;12.20;11.80;;;18.90;63.30;;;;;;5073062;28;20451;-47
2021/12/09 00:37:37;;;;;;;12.43;12.03;;;18.90;63.60;;;;;;5073176;28;20443;-47
2021/12/09 00:40:06;;;;;;;12.50;12.03;;;18.80;63.70;;;;;;5072581;28;20490;-50
2021/12/09 00:42:34;;;;;;;11.47;11.17;;;18.80;63.90;;;;;;5072536;28;20478;-49
2021/12/09 00:45:01;;;;;;;12.37;11.97;;;18.80;63.80;;;;;;5072831;28;20444;-47
2021/12/09 00:47:28;;;;;;;12.70;12.20;;;18.80;64.00;;;;;;5072854;28;20438;-49
2021/12/09 00:49:56;;;;;;;11.60;11.30;;;18.70;64.20;;;;;;5072530;28;20534;-47
2021/12/09 00:52:24;;;;;;;11.77;11.27;;;18.80;64.40;;;;;;5072405;28;20474;-48
2021/12/09 00:54:52;;;;;;;12.40;12.00;;;18.70;64.60;;;;;;5072616;28;20456;-50
2021/12/09 00:57:20;;;;;;;12.10;11.70;;;18.70;64.90;;;;;;5072749;28;20454;-52
2021/12/09 00:59:48;;;;;;;12.20;11.90;;;18.70;65.00;;;;;;5072220;28;20483;-51
2021/12/09 01:02:15;;;;;;;11.77;11.37;;;18.60;65.00;;;;;;5071573;28;20463;-48
2021/12/09 01:04:43;;;;;;;12.03;11.63;;;18.60;65.30;;;;;;5072445;28;20443;-51
2021/12/09 01:07:10;;;;;;;12.07;11.67;;;18.60;65.50;;;;;;5072443;28;20825;-47
2021/12/09 01:09:37;;;;;;;12.47;12.07;;;18.50;65.50;;;;;;5072018;28;20442;-50
2021/12/09 01:12:05;;;;;;;11.63;11.23;;;18.50;65.80;;;;;;5072118;28;20801;-49
2021/12/09 01:14:32;;;;;;;12.00;11.50;;;18.40;65.80;;;;;;5072386;28;20453;-50
2021/12/09 01:17:00;;;;;;;11.90;11.57;;;18.40;66.00;;;;;;5072162;28;20828;-51
2021/12/09 01:19:27;;;;;;;11.50;11.20;;;18.50;66.10;;;;;;5071931;28;20475;-50
2021/12/09 01:21:53;;;;;;;12.13;11.70;;;18.40;66.20;;;;;;5071837;28;20463;-52
2021/12/09 01:24:20;;;;;;;11.60;11.20;;;18.40;66.30;;;;;;5071807;28;20450;-48
2021/12/09 01:26:49;;;;;;;12.17;11.80;;;18.40;66.20;;;;;;5071947;28;20453;-47
2021/12/09 01:29:19;;;;;;;11.57;11.27;;;18.40;66.20;;;;;;5071825;28;20530;-48
2021/12/09 01:31:54;;;;;;;11.53;11.13;;;18.40;66.40;;;;;;5071886;28;20477;-48
2021/12/09 01:34:23;;;;;;;12.10;11.70;;;18.40;66.60;;;;;;5071971;28;20948;-49
2021/12/09 01:36:50;;;;;;;11.80;11.23;;;18.30;66.70;;;;;;5071860;28;20552;-49
2021/12/09 01:39:18;;;;;;;12.50;12.00;;;18.30;67.10;;;;;;5071646;28;20491;-48
2021/12/09 01:41:44;;;;;;;11.70;11.40;;;18.30;67.10;;;;;;5071447;28;20652;-46
2021/12/09 01:44:12;;;;;;;12.03;11.63;;;18.30;67.20;;;;;;5071738;28;20448;-48
2021/12/09 01:46:38;;;;;;;11.63;11.33;;;18.20;67.50;;;;;;5071821;28;20443;-48
2021/12/09 01:49:05;;;;;;;12.17;11.77;;;18.20;67.70;;;;;;5071386;28;21002;-49
2021/12/09 01:51:33;;;;;;;12.17;11.73;;;18.20;68.20;;;;;;5071501;28;20470;-47
2021/12/09 01:54:00;;;;;;;12.27;11.87;;;18.20;68.50;;;;;;5071706;28;20856;-49
2021/12/09 01:56:28;;;;;;;11.93;11.53;;;18.20;68.80;;;;;;5071582;28;20936;-47
2021/12/09 01:58:58;;;;;;;12.47;12.07;;;18.10;69.20;;;;;;5071149;28;20844;-51
2021/12/09 02:01:26;;;;;;;11.37;11.07;;;18.10;69.50;;;;;;5071497;28;20467;-51
2021/12/09 02:03:53;;;;;;;11.00;10.70;;;18.10;69.60;;;;;;5071464;28;20450;-49
2021/12/09 02:06:20;;;;;;;11.57;11.27;;;18.00;69.70;;;;;;5071522;28;20795;-49
2021/12/09 02:08:49;;;;;;;12.40;11.80;;;18.00;69.80;;;;;;5071277;28;20446;-46
2021/12/09 02:11:17;;;;;;;11.90;11.60;;;18.00;69.80;;;;;;5071414;28;20532;-47
2021/12/09 02:13:44;;;;;;;11.40;11.00;;;18.10;69.80;;;;;;5071169;28;20454;-50
2021/12/09 02:16:11;;;;;;;11.77;11.47;;;18.00;69.90;;;;;;5071375;28;20474;-47
2021/12/09 02:18:38;;;;;;;12.00;11.60;;;17.90;70.60;;;;;;5071030;28;20482;-48
2021/12/09 02:21:08;;;;;;;11.67;11.33;;;17.90;71.10;;;;;;5071278;28;20471;-47
2021/12/09 02:23:36;;;;;;;11.83;11.53;;;17.90;71.90;;;;;;5071267;28;20948;-47
2021/12/09 02:26:04;;;;;;;11.50;11.10;;;17.90;72.30;;;;;;5071344;28;20451;-47
2021/12/09 02:28:31;;;;;;;11.43;11.13;;;17.80;72.80;;;;;;5071329;28;20447;-47
2021/12/09 02:30:58;;;;;;;11.90;11.50;;;17.80;73.40;;;;;;5071172;28;20459;-47
2021/12/09 02:33:24;;;;;;;12.20;11.80;;;17.70;73.80;;;;;;5071166;28;20454;-48
2021/12/09 02:35:51;;;;;;;11.50;11.20;;;17.70;74.00;;;;;;5071252;28;20504;-47
2021/12/09 02:38:19;;;;;;;11.87;11.47;;;17.70;74.20;;;;;;5070934;28;20447;-47
2021/12/09 02:40:48;;;;;;;11.90;11.60;;;17.70;74.20;;;;;;5070696;28;20483;-47
2021/12/09 02:43:14;;;;;;;12.30;11.90;;;17.70;74.50;;;;;;5071047;28;20452;-51
2021/12/09 02:45:48;;;;;;;11.50;11.20;;;17.70;74.70;;;;;;5071073;28;20447;-46
2021/12/09 02:48:17;;;;;;;11.80;11.50;;;17.70;74.60;;;;;;5070945;28;20535;-48
2021/12/09 02:50:44;;;;;;;11.10;10.80;;;17.60;74.70;;;;;;5071062;28;20794;-49
2021/12/09 02:53:11;;;;;;;11.77;11.37;;;17.60;75.00;;;;;;5071162;28;20451;-51
2021/12/09 02:55:39;;;;;;;11.37;11.07;;;17.60;75.20;;;;;;5071085;28;20454;-49
2021/12/09 02:58:06;;;;;;;11.20;10.90;;;17.50;76.10;;;;;;5070717;28;20975;-46
2021/12/09 03:00:33;;;;;;;11.70;11.40;;;17.50;76.70;;;;;;5070631;28;20841;-50
2021/12/09 03:03:00;;;;;;;12.30;11.80;;;17.50;77.50;;;;;;5070915;28;20864;-49
2021/12/09 03:05:27;;;;;;;12.27;11.87;;;17.40;77.90;;;;;;5070989;28;20451;-53
2021/12/09 03:07:54;;;;;;;12.03;11.73;;;17.40;78.30;;;;;;5070723;28;20436;-46
2021/12/09 03:10:25;;;;;;;12.30;11.80;;;17.40;78.60;;;;;;5070775;28;20448;-50
2021/12/09 03:12:54;;;;;;;12.03;11.63;;;17.40;78.90;;;;;;5070671;28;20475;-50
2021/12/09 03:15:22;;;;;;;11.70;11.40;;;17.40;79.40;;;;;;5070991;28;20962;-47
2021/12/09 03:17:51;;;;;;;11.43;11.13;;;17.40;79.40;;;;;;5070563;28;20440;-49
2021/12/09 03:20:19;;;;;;;12.70;12.20;;;17.30;79.80;;;;;;5070788;28;20872;-50
2021/12/09 03:22:48;;;;;;;12.40;12.00;;;17.30;80.30;;;;;;5070766;28;20454;-47
2021/12/09 03:25:17;;;;;;;11.93;11.53;;;17.20;81.50;;;;;;5073714;28;20458;-50
2021/12/09 03:27:44;;;;;;;11.90;11.50;;;17.20;82.00;;;;;;5074118;28;20854;-52
2021/12/09 03:30:15;;;;;;;12.43;12.10;;;17.20;82.10;;;;;;5074033;28;20465;-49
2021/12/09 03:32:41;;;;;;;11.80;11.50;;;17.20;82.60;;;;;;5073951;28;20956;-48
2021/12/09 03:35:09;;;;;;;11.40;11.10;;;17.20;82.80;;;;;;5074134;28;20440;-50
2021/12/09 03:37:36;;;;;;;12.40;11.90;;;17.20;83.10;;;;;;5074001;28;20857;-49
2021/12/09 03:40:06;;;;;;;12.63;12.13;;;17.20;83.20;;;;;;5074100;28;20483;-49
2021/12/09 03:42:33;;;;;;;11.80;11.50;;;17.20;83.30;;;;;;5073849;28;20484;-51
2021/12/09 03:45:01;;;;;;;12.60;12.20;;;17.20;83.40;;;;;;5074021;28;20443;-46
2021/12/09 03:47:31;;;;;;;13.03;12.63;;;17.20;83.70;;;;;;5073802;28;20840;-46
2021/12/09 03:49:58;;;;;;;12.87;12.37;;;17.20;84.20;;;;;;5074082;28;20446;-46
2021/12/09 03:52:26;;;;;;;12.37;11.97;;;17.10;84.40;;;;;;5073589;28;20467;-47
2021/12/09 03:54:53;;;;;;;11.80;11.40;;;17.10;84.50;;;;;;5073888;28;20538;-47
2021/12/09 03:57:22;;;;;;;12.13;11.70;;;17.10;85.40;;;;;;5073580;28;20439;-47
2021/12/09 03:59:49;;;;;;;12.00;11.60;;;17.20;85.70;;;;;;5073469;28;20557;-47
2021/12/09 04:02:16;;;;;;;12.00;11.60;;;17.30;85.60;;;;;;5073642;28;20474;-47
2021/12/09 04:04:44;;;;;;;12.20;11.70;;;17.40;85.20;;;;;;5073637;28;20442;-46
2021/12/09 04:07:12;;;;;;;12.73;12.33;;;17.40;84.60;;;;;;5073545;28;20520;-47
2021/12/09 04:09:39;;;;;;;12.70;12.30;;;17.50;84.40;;;;;;5073337;28;20444;-47
2021/12/09 04:12:07;;;;;;;12.87;12.37;;;17.50;84.50;;;;;;5073250;28;20840;-47
2021/12/09 04:14:34;;;;;;;12.30;12.00;;;17.50;84.80;;;;;;5073617;28;20483;-47
2021/12/09 04:17:01;;;;;;;11.80;11.50;;;17.40;84.90;;;;;;5073451;28;20447;-47
2021/12/09 04:19:28;;;;;;;12.40;12.00;;;17.40;85.10;;;;;;5073189;28;20448;-47
2021/12/09 04:21:56;;;;;;;12.20;11.80;;;17.40;85.70;;;;;;5073218;28;20467;-47
2021/12/09 04:24:22;;;;;;;12.23;11.90;;;17.40;86.10;;;;;;5073381;28;20454;-46
2021/12/09 04:26:52;;;;;;;12.50;12.10;;;17.50;86.00;;;;;;5073467;28;20947;-47
2021/12/09 04:29:20;;;;;;;11.70;11.40;;;17.40;85.90;;;;;;5072966;28;20817;-47
2021/12/09 04:31:48;;;;;;;12.43;12.03;;;17.40;86.20;;;;;;5073103;28;20545;-47
2021/12/09 04:34:16;;;;;;;12.60;12.10;;;17.30;87.90;;;;;;5073312;28;20444;-47
2021/12/09 04:36:42;;;;;;;13.00;12.57;;;17.20;98.10;;;;;;5071990;28;20447;-47
2021/12/09 04:39:11;;;;;;;12.90;12.40;;;17.20;99.90;;;;;;5072700;28;20823;-47
2021/12/09 04:41:38;;;;;;;13.43;12.83;;;17.20;99.90;;;;;;5072536;28;20487;-46
2021/12/09 04:44:05;;;;;;;13.00;12.23;;;17.20;99.90;;;;;;5072884;28;20450;-46
2021/12/09 04:46:32;;;;;;;12.80;12.40;;;17.20;99.90;;;;;;5072576;28;20447;-47
2021/12/09 04:48:59;;;;;;;12.00;11.60;;;17.20;99.90;;;;;;5072855;28;20501;-47
2021/12/09 04:51:26;;;;;;;12.63;12.23;;;17.20;99.90;;;;;;5072566;28;20538;-48
2021/12/09 04:53:52;;;;;;;12.93;12.43;;;17.20;99.90;;;;;;5072657;28;20951;-47
2021/12/09 04:56:21;;;;;;;12.60;12.20;;;17.30;99.90;;;;;;5072394;28;20459;-46
2021/12/09 04:58:48;;;;;;;13.47;12.97;;;17.30;99.90;;;;;;5072571;28;20443;-47
2021/12/09 05:01:14;;;;;;;13.50;12.90;;;17.30;99.90;;;;;;5072417;28;20487;-49
2021/12/09 05:03:45;;;;;;;12.90;12.40;;;17.30;99.90;;;;;;5072354;28;20475;-46
2021/12/09 05:06:12;;;;;;;12.33;11.90;;;17.30;99.90;;;;;;5072312;28;20964;-47
2021/12/09 05:08:44;;;;;;;13.70;13.20;;;17.40;99.90;;;;;;5072438;28;20458;-46
2021/12/09 05:11:15;;;;;;;12.57;12.03;;;17.40;99.90;;;;;;5072170;28;21077;-47
2021/12/09 05:13:43;;;;;;;13.50;13.00;;;17.30;99.90;;;;;;5072128;28;20504;-47
2021/12/09 05:16:11;;;;;;;13.17;12.77;;;17.40;99.90;;;;;;5072110;28;20444;-46
2021/12/09 05:18:40;;;;;;;12.77;12.37;;;17.40;99.90;;;;;;5072236;28;20451;-47
2021/12/09 05:21:09;;;;;;;13.53;12.83;;;17.40;99.90;;;;;;5072077;28;21015;-46
2021/12/09 05:23:36;;;;;;;13.60;13.10;;;17.30;99.90;;;;;;5071979;28;20451;-47
2021/12/09 05:26:03;;;;;;;13.63;13.13;;;17.40;99.90;;;;;;5071634;28;20870;-49
2021/12/09 05:28:33;;;;;;;14.50;13.90;;;17.30;99.90;;;;;;5071932;28;20454;-46
2021/12/09 05:33:48;;;;;;;16.43;13.30;;;17.10;99.90;;;;;;5071886;28;21247;-47
2021/12/09 05:36:15;;;;;;;12.03;11.13;;;17.20;99.90;;;;;;5071816;28;20545;-46
2021/12/09 05:38:42;;;;;;;19.03;10.67;;;17.20;99.90;;;;;;5071771;28;20443;-47
2021/12/09 05:41:10;;;;;;;11.87;8.70;;;17.30;99.90;;;;;;5091390;22;20488;-47
2021/12/09 05:43:37;;;;;;;16.73;9.20;;;17.30;99.90;;;;;;5051568;28;20440;-44
2021/12/09 05:46:06;;;;;;;12.30;7.93;;;17.40;99.90;;;;;;5051344;28;20443;-45
2021/12/09 05:48:33;;;;;;;10.60;10.03;;;17.40;99.90;;;;;;5051572;28;20502;-45
2021/12/09 05:51:00;;;;;;;12.77;11.27;;;17.10;99.90;;;;;;5051728;28;20456;-45
2021/12/09 05:53:26;;;;;;;13.53;12.33;;;17.10;99.90;;;;;;5051410;28;20493;-45
2021/12/09 05:55:53;;;;;;;16.73;12.90;;;18.30;99.90;;;;;;5051469;28;20444;-45
2021/12/09 05:58:23;;;;;;;14.37;13.37;;;18.90;99.90;;;;;;5051539;28;20475;-45
2021/12/09 06:00:52;;;;;;;14.83;13.87;;;19.30;99.90;;;;;;5051411;28;20515;-45
2021/12/09 06:03:21;;;;;;;14.70;13.70;;;19.50;99.90;;;;;;5051373;28;20789;-46
2021/12/09 06:05:48;;;;;;;15.57;14.20;;;19.50;99.90;;;;;;5051580;28;20448;-45
2021/12/09 06:08:15;;;;;;;15.47;14.07;;;19.70;99.90;;;;;;5051531;28;20790;-50
2021/12/09 06:10:41;;;;;;;14.60;13.53;;;19.80;99.90;;;;;;5051332;28;20448;-45
2021/12/09 06:13:08;;;;;;;17.20;15.90;;;19.80;99.90;;;;;;5051238;28;20448;-45
2021/12/09 06:15:35;;;;;;;15.90;14.53;;;19.90;99.90;;;;;;5051288;28;20459;-46
2021/12/09 06:18:01;;;;;;;16.30;15.10;;;20.00;99.90;;;;;;5051258;28;20444;-46
2021/12/09 06:20:29;;;;;;;16.13;15.03;;;20.00;99.90;;;;;;5051330;28;20495;-45
2021/12/09 06:22:56;;;;;;;16.07;14.70;;;20.00;99.90;;;;;;5051030;28;20475;-44
2021/12/09 06:25:23;;;;;;;16.13;15.23;;;20.00;99.90;;;;;;5051100;28;20941;-46
2021/12/09 06:27:51;;;;;;;17.87;16.27;;;20.00;99.90;;;;;;5051243;28;20938;-44
2021/12/09 06:30:20;;;;;;;16.67;15.47;;;19.90;99.90;;;;;;5051251;28;20432;-45
2021/12/09 06:32:47;;;;;;;15.13;14.17;;;20.00;99.90;;;;;;5050924;28;20464;-48
2021/12/09 06:35:14;;;;;;;16.93;15.83;;;20.00;99.90;;;;;;5051192;28;20876;-47
2021/12/09 06:37:46;;;;;;;15.90;14.60;;;20.00;99.90;;;;;;5051244;28;20513;-47
2021/12/09 06:40:15;;;;;;;15.57;14.47;;;20.00;99.70;;;;;;5051197;28;20462;-45
2021/12/09 06:42:42;;;;;;;16.33;15.33;;;19.90;99.00;;;;;;5050599;28;20473;-45
2021/12/09 06:45:10;;;;;;;16.43;15.30;;;20.00;98.40;;;;;;5051276;28;20451;-46
2021/12/09 06:47:37;;;;;;;15.93;15.00;;;20.00;98.00;;;;;;5051187;28;20457;-45
2021/12/09 06:50:05;;;;;;;16.20;15.20;;;19.90;97.50;;;;;;5051173;28;20448;-45
2021/12/09 06:52:32;;;;;;;15.80;14.80;;;19.80;97.30;;;;;;5050836;28;20467;-45
2021/12/09 06:55:00;;;;;;;15.63;14.60;;;19.90;97.00;;;;;;5050951;28;20444;-45
2021/12/09 06:57:27;;;;;;;16.70;15.70;;;19.90;96.50;;;;;;5050935;28;20494;-45
2021/12/09 06:59:53;;;;;;;15.57;14.67;;;19.90;95.90;;;;;;5053265;28;20444;-44
2021/12/09 07:02:20;;;;;;;15.73;14.90;;;20.00;95.30;;;;;;5054632;28;20541;-45
2021/12/09 07:04:47;;;;;;;15.40;14.50;;;19.90;95.00;;;;;;5054811;28;20450;-45
2021/12/09 07:07:14;;;;;;;14.67;13.83;;;19.90;94.60;;;;;;5054829;28;20448;-45
2021/12/09 07:09:41;;;;;;;14.43;13.53;;;19.90;94.30;;;;;;5054683;28;20535;-45
2021/12/09 07:12:09;;;;;;;14.30;13.60;;;19.80;93.90;;;;;;5054453;28;20534;-45
2021/12/09 07:14:36;;;;;;;13.13;12.33;;;19.80;93.60;;;;;;5054586;28;20448;-45
2021/12/09 07:17:03;;;;;;;13.47;12.80;;;19.80;93.40;;;;;;5054502;28;20523;-48
2021/12/09 07:19:30;;;;;;;14.33;13.63;;;19.70;93.50;;;;;;5054547;28;20448;-46
2021/12/09 07:21:57;;;;;;;12.97;12.37;;;19.60;93.30;;;;;;5054273;28;20488;-44
2021/12/09 07:24:23;;;;;;;13.60;12.83;;;19.40;93.50;;;;;;5054315;28;20470;-48
2021/12/09 07:26:50;;;;;;;14.00;13.27;;;19.20;93.90;;;;;;5054532;28;20858;-45
2021/12/09 07:29:19;;;;;;;14.70;13.93;;;19.10;94.30;;;;;;5054390;28;20452;-46
2021/12/09 07:31:46;;;;;;;14.40;13.70;;;19.00;94.40;;;;;;5054030;28;20812;-45
2021/12/09 07:34:12;;;;;;;13.73;13.03;;;18.90;94.50;;;;;;5054266;28;20446;-47
2021/12/09 07:36:39;;;;;;;13.13;12.53;;;18.70;94.80;;;;;;5054248;28;20451;-45
2021/12/09 07:39:06;;;;;;;12.93;12.33;;;18.60;94.90;;;;;;5054136;28;20459;-45
2021/12/09 07:41:32;;;;;;;12.57;11.97;;;18.60;95.10;;;;;;5053764;28;20504;-44
2021/12/09 07:44:02;;;;;;;13.57;13.03;;;18.50;95.20;;;;;;5054077;28;20455;-48
2021/12/09 07:46:30;;;;;;;13.30;12.80;;;18.40;95.30;;;;;;5054049;28;20821;-45
2021/12/09 07:48:56;;;;;;;14.30;13.67;;;18.40;95.40;;;;;;5053947;28;20960;-45
2021/12/09 07:51:23;;;;;;;13.67;13.17;;;18.30;95.40;;;;;;5053843;28;20471;-46
2021/12/09 07:53:50;;;;;;;14.00;13.37;;;18.30;95.40;;;;;;5053636;28;20455;-45
2021/12/09 07:56:17;;;;;;;14.93;14.13;;;18.30;95.40;;;;;;5054057;28;20444;-47
2021/12/09 07:58:44;;;;;;;13.53;12.93;;;18.20;95.30;;;;;;5053743;28;20478;-45
2021/12/09 08:01:11;;;;;;;14.17;13.57;;;18.20;95.30;;;;;;5053563;28;20487;-45
2021/12/09 08:03:39;;;;;;;13.67;13.17;;;18.20;95.30;;;;;;5053461;28;20506;-45
2021/12/09 08:06:06;;;;;;;13.83;13.10;;;18.10;95.20;;;;;;5053724;28;20440;-45
2021/12/09 08:08:33;;;;;;;13.43;12.93;;;18.10;95.20;;;;;;5053626;28;20443;-45
2021/12/09 08:10:59;;;;;;;11.80;11.40;;;18.00;95.10;;;;;;5053338;28;20467;-46
2021/12/09 08:13:27;;;;;;;13.30;12.73;;;18.00;95.10;;;;;;5053322;28;20448;-44
2021/12/09 08:15:54;;;;;;;13.80;13.10;;;18.00;95.00;;;;;;5053537;28;20479;-46
2021/12/09 08:18:29;;;;;;;13.30;12.50;;;17.90;95.00;;;;;;5053505;28;20855;-45
2021/12/09 08:21:00;;;;;;;13.30;12.83;;;17.90;95.00;;;;;;5053134;28;20483;-45
2021/12/09 08:23:27;;;;;;;13.37;12.77;;;17.90;95.00;;;;;;5052953;28;20444;-45
2021/12/09 08:25:58;;;;;;;12.97;12.33;;;17.80;94.90;;;;;;5053232;28;20474;-46
2021/12/09 08:28:25;;;;;;;14.00;13.40;;;17.80;94.90;;;;;;5053291;28;20586;-45
2021/12/09 08:30:52;;;;;;;13.03;12.43;;;17.80;94.80;;;;;;5053199;28;20448;-47
2021/12/09 08:33:20;;;;;;;14.17;13.53;;;17.80;94.90;;;;;;5052953;28;20510;-45
2021/12/09 08:35:48;;;;;;;12.67;12.13;;;17.80;94.80;;;;;;5053127;28;20454;-50
2021/12/09 08:38:16;;;;;;;13.03;12.63;;;17.80;94.70;;;;;;5053071;28;20452;-47
2021/12/09 08:40:45;;;;;;;13.70;13.00;;;17.70;94.60;;;;;;5052737;28;20455;-45
2021/12/09 08:43:12;;;;;;;13.47;13.00;;;17.70;94.60;;;;;;5052796;28;20444;-45
2021/12/09 08:45:39;;;;;;;13.20;12.60;;;17.80;94.60;;;;;;5052935;28;20451;-45
2021/12/09 08:48:07;;;;;;;13.10;12.60;;;17.70;94.40;;;;;;5052752;28;20440;-45
2021/12/09 08:50:34;;;;;;;13.33;12.83;;;17.70;94.40;;;;;;5052813;28;20452;-45
2021/12/09 08:53:03;;;;;;;12.83;12.33;;;17.70;94.40;;;;;;5052473;28;20988;-44
2021/12/09 08:55:32;;;;;;;12.23;11.80;;;17.60;94.40;;;;;;5052755;28;20447;-45
2021/12/09 08:57:59;;;;;;;12.87;12.13;;;17.50;94.40;;;;;;5052666;28;20840;-45
2021/12/09 09:00:26;;;;;;;14.27;13.67;;;17.60;94.40;;;;;;5052512;28;20448;-45
2021/12/09 09:02:53;;;;;;;14.47;13.60;;;17.60;94.30;;;;;;5052228;28;20484;-47
2021/12/09 09:05:20;;;;;;;13.30;12.90;;;17.60;94.30;;;;;;5052490;28;20534;-45
2021/12/09 09:07:49;;;;;;;14.03;13.53;;;17.60;94.10;;;;;;5052448;28;20452;-45
2021/12/09 09:10:18;;;;;;;15.23;14.63;;;17.50;94.00;;;;;;5052414;28;20836;-51
2021/12/09 09:12:47;;;;;;;14.70;13.73;;;17.50;93.90;;;;;;5052100;28;20810;-47
2021/12/09 09:15:15;;;;;;;13.40;12.80;;;17.50;93.80;;;;;;5052336;28;20929;-49
2021/12/09 09:17:42;;;;;;;12.70;12.30;;;17.60;93.60;;;;;;5052338;28;20455;-45
2021/12/09 09:20:12;;;;;;;12.50;12.10;;;17.50;93.70;;;;;;5052285;28;20455;-46
2021/12/09 09:22:39;;;;;;;13.20;12.77;;;17.60;92.90;;;;;;5051227;28;21004;-45
2021/12/09 09:25:08;;;;;;;13.30;12.90;;;17.70;92.50;;;;;;5052150;28;20451;-45
2021/12/09 09:27:35;;;;;;;13.60;13.10;;;17.60;92.70;;;;;;5052207;28;20440;-47
2021/12/09 09:30:05;;;;;;;13.00;12.53;;;17.60;92.60;;;;;;5052121;28;20968;-45
2021/12/09 09:32:32;;;;;;;13.40;12.90;;;17.50;92.50;;;;;;5051781;28;20468;-45
2021/12/09 09:34:59;;;;;;;13.40;12.90;;;17.60;92.60;;;;;;5052111;28;20449;-45
2021/12/09 09:37:25;;;;;;;12.83;12.43;;;17.60;92.60;;;;;;5051918;28;20452;-45
2021/12/09 09:39:52;;;;;;;13.93;13.50;;;17.60;92.50;;;;;;5051951;28;20440;-45
2021/12/09 09:42:44;;;;;;;14.03;13.57;;;17.60;92.30;;;;;;5051399;28;20993;-45
2021/12/09 09:45:16;;;;;;;13.70;13.10;;;17.60;92.20;;;;;;5051995;28;21051;-45
2021/12/09 09:47:43;;;;;;;13.03;12.57;;;17.60;92.00;;;;;;5051805;28;20911;-45
2021/12/09 09:50:11;;;;;;;12.90;12.50;;;17.70;91.80;;;;;;5051785;28;20456;-45
2021/12/09 09:52:39;;;;;;;12.90;12.50;;;17.70;91.40;;;;;;5051605;28;20456;-45
2021/12/09 09:55:09;;;;;;;13.97;13.40;;;17.80;91.10;;;;;;5051544;28;20822;-45
2021/12/09 09:57:36;;;;;;;13.97;13.37;;;17.80;90.90;;;;;;5051904;28;20444;-45
2021/12/09 10:00:05;;;;;;;12.30;11.90;;;17.80;90.60;;;;;;5051512;28;20444;-45
2021/12/09 10:02:33;;;;;;;12.63;12.13;;;17.80;90.50;;;;;;5051210;28;20483;-45
2021/12/09 10:05:02;;;;;;;13.10;12.63;;;17.80;90.40;;;;;;5051510;28;20929;-46
2021/12/09 10:07:30;;;;;;;12.90;12.50;;;17.80;90.10;;;;;;5051498;28;20510;-45
2021/12/09 10:09:57;;;;;;;12.40;12.10;;;17.90;89.90;;;;;;5051506;28;20813;-45
2021/12/09 10:12:24;;;;;;;13.60;13.20;;;17.90;89.20;;;;;;5051212;28;20483;-46
2021/12/09 10:14:53;;;;;;;13.30;12.90;;;17.90;89.00;;;;;;5051425;28;20872;-50
2021/12/09 10:17:22;;;;;;;13.10;12.40;;;17.80;89.00;;;;;;5051521;28;20452;-46
2021/12/09 10:19:55;;;;;;;12.70;12.20;;;17.80;88.70;;;;;;5051320;28;20502;-45
2021/12/09 10:22:26;;;;;;;12.97;12.57;;;17.90;88.30;;;;;;5051030;28;20484;-45
2021/12/09 10:24:55;;;;;;;12.97;12.57;;;17.90;87.80;;;;;;5051429;28;20825;-47
2021/12/09 10:27:27;;;;;;;12.60;12.20;;;17.90;87.40;;;;;;5051374;28;20441;-46
2021/12/09 10:29:58;;;;;;;12.50;12.10;;;17.90;87.00;;;;;;5051279;28;20448;-45
2021/12/09 10:32:30;;;;;;;12.90;12.40;;;18.00;86.30;;;;;;5051015;28;20456;-46
2021/12/09 10:35:05;;;;;;;12.43;11.97;;;18.00;85.80;;;;;;5053737;28;20472;-45
2021/12/09 10:37:34;;;;;;;12.93;12.43;;;17.90;85.80;;;;;;5055381;28;20443;-45
2021/12/09 10:40:03;;;;;;;12.77;12.27;;;17.90;86.00;;;;;;5054634;28;20451;-46
2021/12/09 10:42:32;;;;;;;12.00;11.50;;;17.90;87.30;;;;;;5054713;28;20483;-46
2021/12/09 10:45:00;;;;;;;11.83;11.50;;;17.90;91.40;;;;;;5055332;28;20459;-45
2021/12/09 10:47:47;;;;;;;12.20;11.70;;;18.00;92.30;;;;;;5054577;28;20440;-45
2021/12/09 10:50:26;;;;;;;12.30;11.90;;;18.00;93.10;;;;;;5054916;28;20543;-46
2021/12/09 10:52:57;;;;;;;13.67;13.07;;;18.10;94.40;;;;;;5054848;28;20470;-46
2021/12/09 10:55:28;;;;;;;15.03;14.20;;;18.00;96.30;;;;;;5055673;28;20556;-49
2021/12/09 10:58:04;;;;;;;13.60;13.00;;;18.10;99.90;;;;;;5055134;28;20806;-46
2021/12/09 11:00:41;;;;;;;12.70;12.30;;;18.10;99.90;;;;;;5054470;28;20845;-46
2021/12/09 11:03:18;;;;;;;14.67;13.83;;;18.20;99.90;;;;;;5054652;28;20849;-47
2021/12/09 11:05:51;;;;;;;12.90;12.10;;;18.30;99.90;;;;;;5054039;28;20522;-45
2021/12/09 11:08:24;;;;;;;15.60;14.50;;;18.30;99.90;;;;;;5054975;28;20280;-46
2021/12/09 11:10:58;;;;;;;14.53;13.73;;;18.20;99.90;;;;;;5054643;28;20987;-47
2021/12/09 11:13:25;;;;;;;13.50;12.70;;;18.20;99.90;;;;;;5054384;28;20447;-46
2021/12/09 11:15:56;;;;;;;12.80;12.30;;;18.20;99.90;;;;;;5053296;28;20793;-46
2021/12/09 11:18:35;;;;;;;12.67;12.07;;;18.30;99.90;;;;;;5054473;28;20959;-47
2021/12/09 11:21:07;;;;;;;12.37;11.87;;;18.40;99.90;;;;;;5054504;28;20830;-46
2021/12/09 11:23:40;;;;;;;11.30;10.70;;;18.40;99.90;;;;;;5054094;28;20515;-49
2021/12/09 11:26:45;;;;;;;11.07;10.67;;;18.30;99.90;;;;;;5039883;28;20984;-47
2021/12/09 11:29:16;;;;;;;12.60;12.10;;;18.30;99.90;;;;;;5034643;28;20530;-45
2021/12/09 11:31:55;;;;;;;11.67;11.20;;;18.20;99.90;;;;;;5034300;28;20473;-45
2021/12/09 11:34:26;;;;;;;11.90;11.50;;;18.10;99.90;;;;;;5034386;28;20445;-46
2021/12/09 11:37:01;;;;;;;12.10;11.70;;;18.00;99.90;;;;;;5034472;28;20456;-46
2021/12/09 11:39:35;;;;;;;12.47;11.87;;;18.00;99.90;;;;;;5034293;28;20451;-46
2021/12/09 11:42:20;;;;;;;11.67;11.27;;;17.90;99.90;;;;;;5067069;22;20868;-50
2021/12/09 11:44:48;;;;;;;12.33;11.93;;;17.90;99.90;;;;;;5047119;28;20442;-48
2021/12/09 11:47:17;;;;;;;11.70;11.33;;;17.90;99.90;;;;;;5054020;28;20448;-49
2021/12/09 11:49:44;;;;;;;12.07;11.67;;;18.00;99.90;;;;;;5053950;28;20452;-48
2021/12/09 11:52:14;;;;;;;11.33;10.80;;;17.90;99.90;;;;;;5053977;28;20553;-51
2021/12/09 11:54:48;;;;;;;11.40;11.00;;;17.90;99.90;;;;;;5053925;28;20446;-48
2021/12/09 11:57:30;;;;;;;11.67;11.20;;;17.80;99.90;;;;;;5053998;28;20867;-52
2021/12/09 12:12:41;;;;;;;10.50;10.20;;;17.70;99.90;;;;;;5011308;28;20445;-48
2021/12/09 12:15:41;;;;;;;11.40;11.10;;;17.70;99.90;;;;;;5045592;28;20447;-48
2021/12/09 12:21:53;;;;;;;12.07;11.77;;;17.60;99.90;;;;;;5042538;28;20430;-50
2021/12/09 12:24:43;;;;;;;12.60;12.20;;;17.60;99.90;;;;;;5053484;28;20444;-47
2021/12/09 12:30:33;;;;;;;11.87;11.57;;;17.60;99.90;;;;;;5051284;28;20464;-48
2021/12/09 12:33:11;;;;;;;12.60;12.20;;;17.60;99.90;;;;;;5053029;28;20527;-51
2021/12/09 12:36:05;;;;;;;11.80;11.40;;;17.50;99.90;;;;;;5053270;28;20444;-48
2021/12/09 12:39:04;;;;;;;12.03;11.43;;;17.50;99.90;;;;;;5053169;28;20506;-48
2021/12/09 12:41:32;;;;;;;11.80;11.40;;;17.50;99.90;;;;;;5052612;28;20486;-49
2021/12/09 12:44:06;;;;;;;11.43;11.03;;;17.50;99.90;;;;;;5052938;28;20805;-51
2021/12/09 12:46:54;;;;;;;12.00;11.63;;;17.50;99.90;;;;;;5052816;28;20444;-47
2021/12/09 12:49:31;;;;;;;11.50;11.20;;;17.60;99.90;;;;;;5052986;28;20475;-48
2021/12/09 12:52:05;;;;;;;11.90;11.50;;;17.60;99.90;;;;;;5052667;28;20467;-48
2021/12/09 12:54:50;;;;;;;11.47;11.17;;;17.70;99.80;;;;;;5052899;28;20452;-48
2021/12/09 12:57:32;;;;;;;12.03;11.73;;;17.70;99.30;;;;;;5051884;28;20454;-48
2021/12/09 13:00:10;;;;;;;12.00;11.60;;;17.70;98.90;;;;;;5052831;28;20479;-51